createdAt,value
2023-03-22T00:00:30.151Z,13.70
2023-03-22T00:03:33.011Z,13.70
2023-03-22T00:06:37.143Z,13.60
2023-03-22T00:09:39.944Z,13.60
2023-03-22T00:12:42.783Z,13.50
2023-03-22T00:15:48.619Z,13.50
2023-03-22T00:18:51.900Z,13.50
2023-03-22T00:21:56.286Z,13.50
2023-03-22T00:24:59.238Z,13.40
2023-03-22T00:28:02.057Z,13.40
2023-03-22T00:31:06.174Z,13.40
2023-03-22T00:34:09.268Z,13.30
2023-03-22T00:37:13.522Z,13.30
2023-03-22T00:40:18.288Z,13.30
2023-03-22T00:43:21.314Z,13.30
2023-03-22T00:46:24.200Z,13.40
2023-03-22T00:49:27.285Z,13.40
2023-03-22T00:52:31.428Z,13.40
2023-03-22T00:55:34.348Z,13.30
2023-03-22T00:58:37.223Z,13.40
2023-03-22T01:01:40.455Z,13.50
2023-03-22T01:04:46.251Z,13.50
2023-03-22T01:07:51.671Z,13.60
2023-03-22T01:10:54.484Z,13.60
2023-03-22T01:13:57.438Z,13.60
2023-03-22T01:17:00.377Z,13.70
2023-03-22T01:20:06.713Z,13.70
2023-03-22T01:23:10.871Z,13.60
2023-03-22T01:26:13.680Z,13.60
2023-03-22T01:29:16.768Z,13.50
2023-03-22T01:32:19.566Z,13.50
2023-03-22T01:35:22.604Z,13.60
2023-03-22T01:38:26.865Z,13.60
2023-03-22T01:41:29.845Z,13.60
2023-03-22T01:44:33.783Z,13.60
2023-03-22T01:47:36.773Z,13.60
2023-03-22T01:50:42.583Z,13.60
2023-03-22T01:53:51.151Z,13.50
2023-03-22T01:56:54.082Z,13.40
2023-03-22T01:59:57.495Z,13.50
2023-03-22T02:03:00.822Z,13.50
2023-03-22T02:06:04.089Z,13.40
2023-03-22T02:09:09.683Z,13.40
2023-03-22T02:12:21.498Z,13.30
2023-03-22T02:15:26.533Z,13.40
2023-03-22T02:18:44.386Z,13.40
2023-03-22T02:22:25.890Z,13.40
2023-03-22T02:26:04.149Z,13.40
2023-03-22T02:29:13.865Z,13.40
2023-03-22T02:32:33.521Z,13.30
2023-03-22T02:36:16.528Z,13.30
2023-03-22T02:39:32.735Z,13.10
2023-03-22T02:42:44.941Z,13.10
2023-03-22T02:45:52.103Z,13.00
2023-03-22T02:49:03.172Z,13.00
2023-03-22T02:52:17.558Z,12.90
2023-03-22T02:55:25.593Z,12.90
2023-03-22T02:58:31.934Z,12.90
2023-03-22T03:01:39.053Z,12.90
2023-03-22T03:04:46.172Z,12.80
2023-03-22T03:07:53.431Z,12.80
2023-03-22T03:10:57.648Z,12.70
2023-03-22T03:14:00.593Z,12.70
2023-03-22T03:17:14.019Z,12.60
2023-03-22T03:20:29.929Z,12.60
2023-03-22T03:23:43.317Z,12.60
2023-03-22T03:26:57.091Z,12.50
2023-03-22T03:30:04.123Z,12.50
2023-03-22T03:33:10.546Z,12.40
2023-03-22T03:36:17.654Z,12.40
2023-03-22T03:39:22.081Z,12.30
2023-03-22T03:42:29.086Z,12.30
2023-03-22T03:45:32.657Z,12.20
2023-03-22T03:48:39.840Z,12.20
2023-03-22T03:51:51.048Z,12.20
2023-03-22T03:54:55.092Z,12.20
2023-03-22T03:57:59.244Z,12.20
2023-03-22T04:01:03.949Z,12.10
2023-03-22T04:04:07.145Z,12.00
2023-03-22T04:07:10.367Z,12.00
2023-03-22T04:10:13.266Z,12.00
2023-03-22T04:13:17.540Z,12.00
2023-03-22T04:16:20.458Z,12.00
2023-03-22T04:19:23.606Z,12.00
2023-03-22T04:22:26.846Z,12.00
2023-03-22T04:25:30.417Z,12.00
2023-03-22T04:28:34.736Z,11.90
2023-03-22T04:31:39.008Z,11.90
2023-03-22T04:34:41.774Z,11.90
2023-03-22T04:37:45.608Z,11.90
2023-03-22T04:40:48.395Z,11.80
2023-03-22T04:43:52.865Z,11.80
2023-03-22T04:46:55.805Z,11.90
2023-03-22T04:49:58.571Z,11.80
2023-03-22T04:53:01.374Z,11.80
2023-03-22T04:56:05.533Z,11.80
2023-03-22T04:59:10.823Z,11.80
2023-03-22T05:02:13.660Z,11.80
2023-03-22T05:05:16.634Z,11.80
2023-03-22T05:08:19.952Z,11.80
2023-03-22T05:11:24.251Z,11.80
2023-03-22T05:14:28.555Z,11.70
2023-03-22T05:17:31.384Z,11.70
2023-03-22T05:20:34.519Z,11.80
2023-03-22T05:23:37.389Z,11.70
2023-03-22T05:26:42.440Z,11.70
2023-03-22T05:29:46.757Z,11.70
2023-03-22T05:32:50.298Z,11.70
2023-03-22T05:35:53.131Z,11.70
2023-03-22T05:38:56.111Z,11.60
2023-03-22T05:41:58.924Z,11.60
2023-03-22T05:45:03.026Z,11.60
2023-03-22T05:48:05.947Z,11.60
2023-03-22T05:51:13.067Z,11.60
2023-03-22T05:54:15.953Z,11.60
2023-03-22T05:57:19.002Z,11.60
2023-03-22T06:00:24.195Z,11.60
2023-03-22T06:03:27.064Z,11.60
2023-03-22T06:06:29.994Z,11.60
2023-03-22T06:09:32.919Z,11.60
2023-03-22T06:12:36.289Z,11.70
2023-03-22T06:15:40.574Z,11.70
2023-03-22T06:18:43.349Z,11.70
2023-03-22T06:21:46.133Z,11.70
2023-03-22T06:24:49.173Z,11.70
2023-03-22T06:27:51.952Z,11.70
2023-03-22T06:30:56.274Z,11.70
2023-03-22T06:33:59.116Z,11.60
2023-03-22T06:37:01.976Z,11.60
2023-03-22T06:40:05.536Z,11.60
2023-03-22T06:43:08.301Z,11.60
2023-03-22T06:46:12.481Z,11.70
2023-03-22T06:49:16.706Z,11.80
2023-03-22T06:52:19.825Z,11.80
2023-03-22T06:55:22.745Z,11.90
2023-03-22T06:58:25.687Z,12.00
2023-03-22T07:01:29.800Z,12.10
2023-03-22T07:04:33.077Z,12.10
2023-03-22T07:07:35.912Z,12.10
2023-03-22T07:10:39.117Z,12.20
2023-03-22T07:13:42.060Z,12.20
2023-03-22T07:16:46.176Z,12.30
2023-03-22T07:19:48.969Z,12.30
2023-03-22T07:22:52.066Z,12.40
2023-03-22T07:25:55.913Z,12.40
2023-03-22T07:28:59.145Z,12.60
2023-03-22T07:32:03.356Z,12.60
2023-03-22T07:35:06.898Z,12.80
2023-03-22T07:38:09.701Z,12.90
2023-03-22T07:41:12.496Z,12.80
2023-03-22T07:44:18.266Z,13.00
2023-03-22T07:47:39.473Z,13.10
2023-03-22T07:50:42.905Z,13.20
2023-03-22T07:53:45.696Z,13.30
2023-03-22T07:56:49.041Z,13.40
2023-03-22T07:59:51.866Z,13.60
2023-03-22T08:02:56.374Z,13.70
2023-03-22T08:06:03.754Z,13.80
2023-03-22T08:09:08.320Z,13.80
2023-03-22T08:12:11.242Z,13.90
2023-03-22T08:15:14.100Z,14.10
2023-03-22T08:18:18.430Z,14.10
2023-03-22T08:21:23.503Z,14.20
2023-03-22T08:24:26.391Z,14.40
2023-03-22T08:27:29.171Z,14.50
2023-03-22T08:30:32.060Z,14.60
2023-03-22T08:33:36.758Z,14.70
2023-03-22T08:36:39.737Z,14.70
2023-03-22T08:39:44.011Z,14.80
2023-03-22T08:42:46.780Z,14.90
2023-03-22T08:45:49.607Z,15.00
2023-03-22T08:48:53.777Z,15.00
2023-03-22T08:51:57.603Z,15.20
2023-03-22T08:55:01.198Z,15.30
2023-03-22T08:58:04.863Z,15.40
2023-03-22T09:01:07.971Z,15.50
2023-03-22T09:04:12.121Z,15.70
2023-03-22T09:07:15.033Z,15.70
2023-03-22T09:10:17.968Z,15.80
2023-03-22T09:13:21.669Z,15.80
2023-03-22T09:16:24.669Z,16.00
2023-03-22T09:19:29.084Z,16.10
2023-03-22T09:22:31.968Z,16.20
2023-03-22T09:25:35.018Z,16.20
2023-03-22T09:28:38.292Z,16.20
2023-03-22T09:31:41.318Z,16.30
2023-03-22T09:34:45.600Z,16.40
2023-03-22T09:37:53.039Z,16.50
2023-03-22T09:41:02.164Z,16.60
2023-03-22T09:44:07.752Z,16.50
2023-03-22T09:47:17.039Z,16.70
2023-03-22T09:50:24.223Z,16.90
2023-03-22T09:53:29.359Z,17.10
2023-03-22T09:56:33.285Z,17.20
2023-03-22T09:59:45.442Z,17.30
2023-03-22T10:02:55.870Z,17.50
2023-03-22T10:06:05.347Z,17.60
2023-03-22T10:09:14.456Z,17.50
2023-03-22T10:12:26.671Z,17.50
2023-03-22T10:15:34.201Z,17.60
2023-03-22T10:18:39.755Z,17.90
2023-03-22T10:21:45.284Z,18.10
2023-03-22T10:24:51.937Z,18.10
2023-03-22T10:27:54.867Z,18.30
2023-03-22T10:30:59.128Z,18.50
2023-03-22T10:34:06.600Z,18.70
2023-03-22T10:37:16.097Z,18.70
2023-03-22T10:40:21.252Z,18.40
2023-03-22T10:43:28.855Z,18.50
2023-03-22T10:46:37.373Z,18.70
2023-03-22T10:49:45.100Z,18.80
2023-03-22T10:52:52.497Z,18.90
2023-03-22T10:55:55.599Z,19.30
2023-03-22T10:58:58.963Z,19.60
2023-03-22T11:02:02.162Z,19.70
2023-03-22T11:05:07.085Z,19.70
2023-03-22T11:08:15.563Z,19.70
2023-03-22T11:11:24.325Z,19.80
2023-03-22T11:14:31.568Z,19.80
2023-03-22T11:17:38.255Z,19.80
2023-03-22T11:20:43.162Z,20.00
2023-03-22T11:23:56.344Z,20.10
2023-03-22T11:27:07.406Z,20.20
2023-03-22T11:30:21.097Z,20.30
2023-03-22T11:33:25.821Z,20.40
2023-03-22T11:36:29.594Z,20.70
2023-03-22T11:39:34.162Z,21.00
2023-03-22T11:42:37.194Z,21.30
2023-03-22T11:45:43.945Z,21.50
2023-03-22T11:48:48.406Z,21.70
2023-03-22T11:51:53.029Z,21.80
2023-03-22T11:54:59.573Z,21.70
2023-03-22T11:58:03.921Z,21.70
2023-03-22T12:01:08.690Z,21.80
2023-03-22T12:04:17.285Z,22.00
2023-03-22T12:07:24.502Z,22.30
2023-03-22T12:10:32.035Z,22.60
2023-03-22T12:13:44.252Z,22.70
2023-03-22T12:16:51.220Z,22.70
2023-03-22T12:20:00.402Z,22.90
2023-03-22T12:23:03.804Z,23.10
2023-03-22T12:26:13.906Z,23.10
2023-03-22T12:29:19.170Z,23.40
2023-03-22T12:32:26.303Z,23.30
2023-03-22T12:35:32.294Z,23.50
2023-03-22T12:38:41.261Z,23.60
2023-03-22T12:41:49.607Z,23.90
2023-03-22T12:45:04.545Z,24.00
2023-03-22T12:48:16.300Z,24.30
2023-03-22T12:51:19.229Z,24.30
2023-03-22T12:54:26.125Z,24.30
2023-03-22T12:57:30.560Z,24.40
2023-03-22T13:00:39.406Z,24.60
2023-03-22T13:03:47.859Z,24.10
2023-03-22T13:06:58.718Z,23.90
2023-03-22T13:10:22.440Z,23.90
2023-03-22T13:13:56.653Z,24.00
2023-03-22T13:17:01.470Z,24.00
2023-03-22T13:20:27.025Z,24.20
2023-03-22T13:23:29.827Z,24.30
2023-03-22T13:26:37.789Z,24.40
2023-03-22T13:29:43.048Z,24.70
2023-03-22T13:32:52.028Z,24.80
2023-03-22T13:35:58.813Z,24.90
2023-03-22T13:39:09.140Z,24.90
2023-03-22T13:42:21.019Z,24.80
2023-03-22T13:45:33.828Z,24.30
2023-03-22T13:48:54.703Z,24.30
2023-03-22T13:52:02.111Z,24.10
2023-03-22T13:55:15.201Z,24.20
2023-03-22T13:58:37.312Z,24.20
2023-03-22T14:01:47.548Z,24.00
2023-03-22T14:04:54.103Z,23.90
2023-03-22T14:07:59.357Z,24.10
2023-03-22T14:11:08.705Z,24.30
2023-03-22T14:14:14.321Z,24.30
2023-03-22T14:17:30.796Z,24.30
2023-03-22T14:20:37.466Z,24.50
